createdAt,value
2024-01-15T00:02:29.833Z,7.2
2024-01-15T00:07:52.862Z,9.6
2024-01-15T05:14:22.529Z,5.9
2024-01-15T05:19:48.740Z,7.2
2024-01-15T05:25:30.934Z,7.2
2024-01-15T05:36:26.042Z,5.9
2024-01-15T05:42:18.715Z,4.8
2024-01-15T05:53:22.719Z,7.2
2024-01-15T06:26:36.830Z,5.9
2024-01-15T06:32:12.193Z,5.9
2024-01-15T06:37:55.130Z,5.9
2024-01-15T06:43:31.866Z,4.8
2024-01-15T09:41:46.137Z,0
2024-01-15T10:15:10.252Z,0
2024-01-15T10:26:32.759Z,0
2024-01-15T10:42:59.567Z,7.2
2024-01-15T10:48:34.728Z,5.9
2024-01-15T13:19:42.131Z,23.9
2024-01-15T13:30:34.036Z,22.8
2024-01-15T13:36:06.369Z,20.4
2024-01-15T13:47:41.027Z,20.4
2024-01-15T13:53:17.442Z,23.9
2024-01-15T13:58:25.002Z,16.8
2024-01-15T14:04:27.998Z,20.4
2024-01-15T14:09:36.824Z,21.5
2024-01-15T14:15:29.760Z,26.4
2024-01-15T14:21:10.381Z,32.3
2024-01-15T14:26:42.289Z,33.6
2024-01-15T14:32:07.913Z,31.2
2024-01-15T14:37:38.568Z,29.9
2024-01-15T14:43:24.372Z,33.6
2024-01-15T14:48:46.434Z,33.6
2024-01-15T14:54:16.114Z,28.8
2024-01-15T14:59:52.693Z,21.5
2024-01-15T15:05:37.596Z,21.5
2024-01-15T15:11:00.817Z,28.8
2024-01-15T15:22:16.272Z,19.2
2024-01-15T15:33:41.265Z,11.9
2024-01-15T15:44:36.331Z,15.6
2024-01-15T16:12:35.943Z,21.5
2024-01-15T16:23:02.476Z,20.4
2024-01-15T16:23:52.928Z,20.4
2024-01-15T16:29:18.526Z,22.8
2024-01-15T16:34:41.552Z,20.4
2024-01-15T16:40:13.458Z,16.8
2024-01-15T16:46:01.306Z,14.4
2024-01-15T16:51:34.353Z,18
2024-01-15T16:57:00.519Z,11.9
2024-01-15T17:02:35.645Z,8.4
2024-01-15T17:08:25.600Z,7.2
2024-01-15T17:14:00.799Z,7.2
2024-01-15T17:19:35.277Z,2.4
2024-01-15T17:24:59.157Z,3.6
2024-01-15T17:30:20.253Z,3.6
2024-01-15T17:35:54.139Z,3.6
2024-01-15T17:47:03.413Z,0
2024-01-15T17:52:39.848Z,2.4
2024-01-15T17:58:01.808Z,8.4
2024-01-15T18:03:43.036Z,9.6
2024-01-15T18:09:14.799Z,8.4
2024-01-15T18:14:53.407Z,16.8
2024-01-15T18:20:25.103Z,8.4
2024-01-15T18:26:13.526Z,4.8
2024-01-15T18:31:41.700Z,10.7
2024-01-15T18:42:39.481Z,10.7
2024-01-15T18:48:19.490Z,13.2
2024-01-15T18:53:53.138Z,7.2
2024-01-15T18:59:39.968Z,7.2
2024-01-15T19:05:13.987Z,3.6
2024-01-15T19:10:20.905Z,8.4
2024-01-15T19:16:09.856Z,7.2
2024-01-15T19:21:41.656Z,7.2
2024-01-15T19:27:18.196Z,7.2
2024-01-15T19:32:35.669Z,2.4
2024-01-15T19:38:25.368Z,4.8
2024-01-15T19:43:48.886Z,5.9
2024-01-15T19:49:26.080Z,3.6
2024-01-15T19:54:57.993Z,8.4
2024-01-15T20:00:25.991Z,3.6
2024-01-15T20:06:14.636Z,4.8
2024-01-15T20:11:48.628Z,2.4
2024-01-15T20:17:04.208Z,3.6
2024-01-15T20:22:49.023Z,3.6
2024-01-15T20:28:26.918Z,3.6
2024-01-15T20:34:04.914Z,3.6
2024-01-15T20:39:36.405Z,4.8
2024-01-15T20:45:06.562Z,2.4
2024-01-15T20:50:50.964Z,0
2024-01-15T20:56:07.272Z,0
2024-01-15T21:01:38.625Z,0
2024-01-15T21:07:17.606Z,10.7
2024-01-15T21:12:49.299Z,13.2
2024-01-15T21:18:22.515Z,15.6
2024-01-15T21:23:50.862Z,11.9
2024-01-15T21:29:25.897Z,7.2
2024-01-15T21:35:11.822Z,3.6
2024-01-15T21:40:26.414Z,7.2
2024-01-15T21:45:59.138Z,5.9
2024-01-15T21:51:44.345Z,3.6
2024-01-15T21:57:25.500Z,7.2
2024-01-15T22:03:04.048Z,8.4
2024-01-15T22:08:24.453Z,11.9
2024-01-15T22:13:50.836Z,13.2
2024-01-15T22:19:35.623Z,11.9
2024-01-15T22:25:02.474Z,14.4
2024-01-15T22:30:37.975Z,13.2
2024-01-15T22:36:17.310Z,10.7
2024-01-15T22:42:03.461Z,8.4
2024-01-15T22:47:29.842Z,11.9
2024-01-15T22:53:09.702Z,11.9
2024-01-15T22:58:41.325Z,11.9
2024-01-15T23:04:01.554Z,11.9
2024-01-15T23:09:46.931Z,7.2
2024-01-15T23:15:12.311Z,8.4
2024-01-15T23:20:40.125Z,7.2
2024-01-15T23:26:23.904Z,13.2
2024-01-15T23:31:37.981Z,9.6
2024-01-15T23:37:16.259Z,9.6
2024-01-15T23:43:03.886Z,8.4
2024-01-15T23:48:20.646Z,5.9
2024-01-15T23:53:54.406Z,4.8
2024-01-15T23:59:53.088Z,3.6
